Time;durP1;ratioP1;P1;durP2;ratioP2;P2;SDS_P1;SDS_P2;PMS_P1;PMS_P2;Temp;Humidity;BMP_temperature;BMP_pressure;BME280_temperature;BME280_humidity;BME280_pressure;Samples;Min_cycle;Max_cycle;Signal;HPM_P1;HPM_P2
2023/07/29 00:00:04;;;;;;;5.75;0.25;;;;;;;20.69;100.00;98592.69;7393618;19;20022;-61
2023/07/29 00:02:38;;;;;;;0.52;0.20;;;;;;;21.32;100.00;98595.25;7396088;19;20022;-61
2023/07/29 00:05:05;;;;;;;0.30;0.20;;;;;;;20.93;100.00;98586.31;7393091;19;20021;-60
2023/07/29 00:07:31;;;;;;;3.33;0.40;;;;;;;20.81;100.00;98595.84;7397761;19;20016;-62
2023/07/29 00:09:58;;;;;;;0.35;0.20;;;;;;;20.78;100.00;98592.06;7392694;19;20025;-61
2023/07/29 00:12:24;;;;;;;1.10;0.30;;;;;;;20.68;100.00;98579.88;7395216;19;20014;-61
2023/07/29 00:14:50;;;;;;;7.80;0.30;;;;;;;20.72;100.00;98585.91;7390516;19;20007;-61
2023/07/29 00:17:16;;;;;;;0.10;0.10;;;;;;;20.69;100.00;98584.22;7392647;19;20011;-61
2023/07/29 00:19:43;;;;;;;0.60;0.60;;;;;;;21.97;100.00;98579.47;7391645;19;20015;-61
2023/07/29 00:22:09;;;;;;;0.32;0.25;;;;;;;21.21;100.00;98575.91;7391741;19;20030;-61
2023/07/29 00:24:35;;;;;;;0.65;0.40;;;;;;;20.78;100.00;98577.94;7393603;19;20014;-61
2023/07/29 00:27:01;;;;;;;0.15;0.10;;;;;;;20.76;100.00;98574.94;7394171;19;20007;-61
2023/07/29 00:29:27;;;;;;;0.25;0.20;;;;;;;21.17;100.00;98572.72;7395353;19;20017;-61
2023/07/29 00:31:53;;;;;;;1.45;0.63;;;;;;;21.52;100.00;98580.72;7394809;19;20010;-61
2023/07/29 00:34:20;;;;;;;0.10;0.10;;;;;;;21.37;100.00;98571.63;7397996;19;20015;-61
2023/07/29 00:36:46;;;;;;;0.10;0.10;;;;;;;24.57;100.00;98573.91;7399211;19;20015;-61
2023/07/29 00:39:12;;;;;;;0.75;0.40;;;;;;;21.45;100.00;98580.78;7402534;19;20495;-61
2023/07/29 00:41:39;;;;;;;0.52;0.40;;;;;;;20.97;100.00;98580.97;7399905;19;20408;-61
2023/07/29 00:44:05;;;;;;;0.10;0.10;;;;;;;20.94;100.00;98584.97;7404094;19;20048;-61
2023/07/29 00:46:34;;;;;;;0.40;0.20;;;;;;;21.16;100.00;98574.81;7398431;19;20017;-61
2023/07/29 00:49:00;;;;;;;9.05;0.40;;;;;;;21.32;100.00;98578.25;7401727;19;20021;-60
2023/07/29 00:51:27;;;;;;;0.10;0.10;;;;;;;21.49;100.00;98581.09;7396998;19;20018;-61
2023/07/29 00:53:53;;;;;;;0.20;0.10;;;;;;;21.57;100.00;98587.47;7396533;19;20007;-60
2023/07/29 00:56:19;;;;;;;0.43;0.25;;;;;;;21.43;100.00;98583.44;7396628;19;20020;-60
2023/07/29 00:58:46;;;;;;;3.33;0.85;;;;;;;21.78;100.00;98582.91;7401523;19;20014;-60
2023/07/29 01:01:12;;;;;;;1.02;0.30;;;;;;;21.45;100.00;98577.94;7397792;19;20018;-60
2023/07/29 01:03:38;;;;;;;0.40;0.10;;;;;;;25.17;100.00;98572.50;7396911;19;20098;-61
2023/07/29 01:06:28;;;;;;;0.63;0.30;;;;;;;25.56;100.00;98567.34;7397695;19;20023;-61
2023/07/29 01:09:02;;;;;;;0.93;0.13;;;;;;;22.99;100.00;98572.00;7400260;19;20088;-61
2023/07/29 01:11:40;;;;;;;0.32;0.17;;;;;;;24.79;100.00;98573.44;7396471;19;20010;-61
2023/07/29 01:14:36;;;;;;;0.28;0.20;;;;;;;24.73;100.00;98563.69;7397021;19;20015;-61
2023/07/29 01:17:07;;;;;;;0.40;0.20;;;;;;;22.69;100.00;98581.00;7397053;19;20066;-61
2023/07/29 01:19:54;;;;;;;0.30;0.10;;;;;;;25.67;100.00;98560.19;7401015;19;20566;-61
2023/07/29 01:22:21;;;;;;;0.10;0.00;;;;;;;23.84;100.00;98568.63;7397939;19;20336;-61
2023/07/29 01:24:48;;;;;;;0.75;0.30;;;;;;;26.84;100.00;98563.59;7397517;19;20409;-61
2023/07/29 01:27:14;;;;;;;0.13;0.13;;;;;;;22.69;100.00;98569.66;7396925;19;20444;-61
2023/07/29 01:29:41;;;;;;;0.98;0.20;;;;;;;22.34;100.00;98563.31;7400728;19;20014;-61
2023/07/29 01:32:14;;;;;;;0.20;0.10;;;;;;;21.14;100.00;98569.72;7397455;19;20022;-61
2023/07/29 01:35:17;;;;;;;0.17;0.10;;;;;;;23.55;100.00;98558.56;7396836;19;20096;-61
2023/07/29 01:37:49;;;;;;;4.93;0.60;;;;;;;21.08;100.00;98565.63;7395871;19;20023;-61
2023/07/29 01:40:16;;;;;;;0.52;0.15;;;;;;;23.29;100.00;98566.56;7396278;19;20365;-61
2023/07/29 01:42:43;;;;;;;0.00;0.00;;;;;;;21.31;100.00;98559.78;7399181;19;20011;-62
2023/07/29 01:45:09;;;;;;;0.30;0.30;;;;;;;23.03;100.00;98555.28;7395843;19;20037;-62
2023/07/29 01:47:36;;;;;;;0.17;0.15;;;;;;;21.20;100.00;98549.69;7399151;19;20019;-62
2023/07/29 01:50:03;;;;;;;0.10;0.00;;;;;;;20.79;100.00;98556.06;7396655;19;20093;-62
2023/07/29 01:52:29;;;;;;;0.20;0.10;;;;;;;20.45;100.00;98555.88;7397997;19;20070;-62
2023/07/29 01:54:55;;;;;;;0.10;0.10;;;;;;;20.07;100.00;98556.84;7400478;19;20447;-61
2023/07/29 01:57:22;;;;;;;0.52;0.10;;;;;;;21.09;100.00;98545.22;7397051;19;20018;-61
2023/07/29 01:59:48;;;;;;;0.50;0.10;;;;;;;20.32;100.00;98548.44;7396704;19;20377;-62
2023/07/29 02:02:16;;;;;;;0.10;0.10;;;;;;;20.71;100.00;98539.13;7396634;19;20018;-61
2023/07/29 02:04:42;;;;;;;1.17;0.40;;;;;;;20.62;100.00;98542.56;7396209;19;20034;-62
2023/07/29 02:07:08;;;;;;;0.30;0.22;;;;;;;21.34;100.00;98538.78;7397932;19;20014;-62
2023/07/29 02:09:34;;;;;;;0.17;0.10;;;;;;;20.21;100.00;98540.38;7395163;19;20018;-62
2023/07/29 02:12:00;;;;;;;0.40;0.20;;;;;;;20.61;100.00;98546.75;7393457;19;20384;-62
2023/07/29 02:14:37;;;;;;;0.90;0.17;;;;;;;19.99;100.00;98550.44;7400275;19;20010;-62
2023/07/29 02:17:03;;;;;;;0.40;0.40;;;;;;;20.14;100.00;98546.81;7397193;19;20044;-61
2023/07/29 02:19:29;;;;;;;0.50;0.13;;;;;;;19.88;100.00;98542.38;7398932;19;20038;-62
2023/07/29 02:21:55;;;;;;;0.10;0.00;;;;;;;19.77;100.00;98550.56;7395304;19;20018;-62
2023/07/29 02:24:21;;;;;;;4.68;0.68;;;;;;;19.80;100.00;98555.03;7396923;19;20035;-62
2023/07/29 02:26:48;;;;;;;5.57;0.43;;;;;;;20.16;100.00;98552.66;7394151;19;20015;-62
2023/07/29 02:29:14;;;;;;;3.45;0.20;;;;;;;20.00;100.00;98546.31;7396989;19;20012;-63
2023/07/29 02:31:40;;;;;;;0.55;0.10;;;;;;;19.85;100.00;98551.28;7395931;19;20014;-62
2023/07/29 02:34:06;;;;;;;0.10;0.10;;;;;;;19.48;100.00;98542.34;7393823;19;20038;-62
2023/07/29 02:36:32;;;;;;;0.90;0.40;;;;;;;19.34;100.00;98548.75;7396979;19;20018;-61
2023/07/29 02:38:58;;;;;;;2.88;0.20;;;;;;;19.40;100.00;98540.88;7393949;19;20021;-61
2023/07/29 02:41:25;;;;;;;1.55;0.15;;;;;;;19.29;100.00;98533.53;7395268;19;20034;-61
2023/07/29 02:43:51;;;;;;;0.30;0.15;;;;;;;19.42;100.00;98539.00;7398931;19;20014;-61
2023/07/29 02:46:18;;;;;;;1.10;0.43;;;;;;;22.63;100.00;98533.78;7393364;19;20470;-62
2023/07/29 02:48:44;;;;;;;0.10;0.10;;;;;;;20.28;100.00;98548.06;7396634;19;20038;-61
2023/07/29 02:51:11;;;;;;;2.00;0.40;;;;;;;20.18;100.00;98533.75;7394193;19;20010;-62
2023/07/29 02:53:37;;;;;;;2.30;0.50;;;;;;;20.44;100.00;98535.34;7394472;19;20007;-62
2023/07/29 02:56:04;;;;;;;0.17;0.00;;;;;;;19.95;100.00;98535.19;7393602;19;20355;-62
2023/07/29 02:58:30;;;;;;;0.10;0.10;;;;;;;19.90;100.00;98531.28;7392429;19;20022;-62
2023/07/29 03:01:04;;;;;;;0.57;0.57;;;;;;;19.43;100.00;98532.00;7393426;19;20019;-62
2023/07/29 03:03:31;;;;;;;0.55;0.32;;;;;;;19.14;100.00;98541.25;7389920;19;20031;-61
2023/07/29 03:05:59;;;;;;;1.45;0.57;;;;;;;19.25;100.00;98527.50;7390081;19;20014;-61
2023/07/29 03:08:26;;;;;;;0.10;0.10;;;;;;;19.29;100.00;98529.94;7389252;19;20011;-62
2023/07/29 03:10:52;;;;;;;3.80;0.28;;;;;;;19.16;100.00;98533.72;7391729;19;20017;-62
2023/07/29 03:13:18;;;;;;;1.10;0.45;;;;;;;19.19;100.00;98535.41;7390987;19;20015;-62
2023/07/29 03:15:44;;;;;;;5.35;0.20;;;;;;;19.18;100.00;98533.91;7392144;19;20160;-62
2023/07/29 03:18:10;;;;;;;2.63;0.40;;;;;;;19.38;100.00;98538.59;7395343;19;20364;-62
2023/07/29 03:20:36;;;;;;;1.65;0.50;;;;;;;19.42;100.00;98527.69;7393351;19;20017;-61
2023/07/29 03:23:02;;;;;;;0.57;0.20;;;;;;;19.35;100.00;98528.47;7392057;19;20013;-62
2023/07/29 03:25:29;;;;;;;0.93;0.47;;;;;;;20.11;100.00;98528.16;7394792;19;20081;-61
2023/07/29 03:27:55;;;;;;;0.32;0.10;;;;;;;19.38;100.00;98518.84;7391635;19;20084;-62
2023/07/29 03:30:22;;;;;;;2.10;0.15;;;;;;;20.35;100.00;98519.00;7394153;19;20023;-62
2023/07/29 03:32:49;;;;;;;0.50;0.38;;;;;;;19.60;100.00;98526.50;7391769;19;20010;-62
2023/07/29 03:35:15;;;;;;;0.15;0.15;;;;;;;19.84;100.00;98516.59;7392079;19;20459;-62
2023/07/29 03:37:41;;;;;;;0.35;0.20;;;;;;;19.38;100.00;98521.66;7395489;19;20070;-61
2023/07/29 03:40:09;;;;;;;0.40;0.28;;;;;;;20.55;100.00;98526.44;7392762;19;20006;-61
2023/07/29 03:42:36;;;;;;;0.32;0.20;;;;;;;19.29;100.00;98519.41;7393505;19;20066;-61
2023/07/29 03:45:02;;;;;;;0.90;0.77;;;;;;;20.20;100.00;98519.06;7392653;19;20038;-61
2023/07/29 03:47:28;;;;;;;0.68;0.50;;;;;;;20.16;100.00;98522.28;7392456;19;20007;-61
2023/07/29 03:49:56;;;;;;;0.20;0.10;;;;;;;25.39;100.00;98513.41;7394603;19;20010;-61
2023/07/29 03:52:23;;;;;;;1.33;0.43;;;;;;;22.44;100.00;98519.47;7389411;19;20006;-61
2023/07/29 03:54:49;;;;;;;8.00;0.50;;;;;;;20.02;100.00;98514.63;7391734;19;20011;-61
2023/07/29 03:57:15;;;;;;;0.73;0.25;;;;;;;20.85;100.00;98512.03;7391798;19;20010;-61
2023/07/29 03:59:41;;;;;;;1.58;0.52;;;;;;;20.41;100.00;98516.69;7392950;19;20082;-61
2023/07/29 04:02:08;;;;;;;0.38;0.25;;;;;;;21.44;100.00;98516.97;7395551;19;20021;-61
2023/07/29 04:04:34;;;;;;;2.55;0.47;;;;;;;21.58;100.00;98510.38;7390149;19;20011;-61
2023/07/29 04:07:00;;;;;;;0.50;0.30;;;;;;;21.34;100.00;98513.28;7390364;19;20011;-61
2023/07/29 04:09:26;;;;;;;2.95;0.43;;;;;;;29.68;87.61;98490.91;7391023;19;21071;-61
2023/07/29 04:11:52;;;;;;;3.92;0.85;;;;;;;23.18;100.00;98512.41;7392669;19;20384;-62
2023/07/29 04:14:18;;;;;;;1.35;0.20;;;;;;;23.28;100.00;98510.34;7397033;19;20014;-62
2023/07/29 04:16:45;;;;;;;0.35;0.32;;;;;;;20.23;100.00;98523.59;7394855;19;20344;-62
2023/07/29 04:19:11;;;;;;;0.70;0.20;;;;;;;32.95;68.31;98499.47;7391130;19;20062;-62
2023/07/29 04:21:37;;;;;;;1.00;0.10;;;;;;;30.92;79.36;98498.31;7391155;19;20015;-62
2023/07/29 04:24:03;;;;;;;2.05;0.25;;;;;;;34.95;57.12;98484.47;7392388;19;20084;-62
2023/07/29 04:26:30;;;;;;;0.65;0.20;;;;;;;37.49;48.23;98494.22;7397417;19;20455;-62
2023/07/29 04:28:56;;;;;;;4.30;0.75;;;;;;;39.08;42.28;98490.13;7394977;19;20014;-62
2023/07/29 04:31:22;;;;;;;4.47;1.08;;;;;;;39.52;41.21;98490.66;7390787;19;20033;-62
2023/07/29 04:33:48;;;;;;;0.10;0.10;;;;;;;39.62;39.40;98481.28;7389975;19;20367;-62
2023/07/29 04:36:14;;;;;;;6.00;0.57;;;;;;;40.13;37.66;98492.69;7389806;19;20014;-62
2023/07/29 04:38:43;;;;;;;0.10;0.03;;;;;;;40.27;36.51;98494.25;7392466;19;20031;-61
2023/07/29 04:41:10;;;;;;;0.10;0.10;;;;;;;35.97;41.52;98491.59;7391980;19;20373;-61
2023/07/29 04:43:37;;;;;;;0.85;0.25;;;;;;;36.11;41.63;98501.38;7395770;19;20015;-61
2023/07/29 04:46:07;;;;;;;1.48;0.50;;;;;;;34.89;43.35;98501.69;7391766;19;20015;-61
2023/07/29 04:48:33;;;;;;;6.25;0.28;;;;;;;35.22;42.96;98503.34;7389993;19;20035;-61
2023/07/29 04:50:59;;;;;;;0.52;0.30;;;;;;;35.49;42.53;98491.84;7394549;19;20351;-62
2023/07/29 04:53:25;;;;;;;10.38;0.55;;;;;;;36.06;42.03;98501.97;7389419;19;20023;-62
2023/07/29 04:55:51;;;;;;;10.38;0.95;;;;;;;38.89;38.90;98494.28;7392063;19;20014;-62
2023/07/29 04:58:17;;;;;;;4.32;0.45;;;;;;;40.53;36.10;98506.84;7390002;19;20019;-62
2023/07/29 05:00:43;;;;;;;0.82;0.35;;;;;;;24.88;77.15;98517.78;7391310;19;20011;-62
2023/07/29 05:03:10;;;;;;;1.13;0.17;;;;;;;22.08;100.00;98522.25;7393595;19;20010;-61
2023/07/29 05:05:36;;;;;;;1.10;0.28;;;;;;;21.93;100.00;98533.03;7390476;19;20011;-61
2023/07/29 05:08:03;;;;;;;5.00;0.30;;;;;;;20.72;100.00;98529.31;7391262;19;20022;-61
2023/07/29 05:10:29;;;;;;;1.60;0.45;;;;;;;20.10;100.00;98526.66;7390623;19;20021;-61
2023/07/29 05:12:55;;;;;;;0.10;0.00;;;;;;;20.25;100.00;98520.94;7389383;19;20011;-62
2023/07/29 05:15:21;;;;;;;0.22;0.15;;;;;;;19.58;100.00;98522.72;7395481;19;20021;-62
2023/07/29 05:17:47;;;;;;;0.10;0.10;;;;;;;19.70;100.00;98525.91;7395608;19;20101;-62
2023/07/29 05:20:13;;;;;;;0.55;0.10;;;;;;;20.26;100.00;98525.28;7398701;19;20343;-61
2023/07/29 05:22:39;;;;;;;0.85;0.32;;;;;;;19.10;100.00;98530.34;7398318;19;20011;-62
2023/07/29 05:25:06;;;;;;;0.17;0.17;;;;;;;19.39;100.00;98526.00;7399754;19;20360;-62
2023/07/29 05:27:32;;;;;;;0.50;0.20;;;;;;;19.39;100.00;98528.81;7403980;19;20043;-62
2023/07/29 05:29:58;;;;;;;0.35;0.35;;;;;;;19.07;100.00;98525.09;7403138;19;20007;-61
2023/07/29 05:32:24;;;;;;;0.68;0.52;;;;;;;19.05;100.00;98522.84;7397065;19;20007;-62
2023/07/29 05:34:50;;;;;;;2.63;0.68;;;;;;;18.69;100.00;98525.84;7397040;19;20044;-62
2023/07/29 05:37:17;;;;;;;0.63;0.38;;;;;;;18.78;100.00;98521.69;7395952;19;20011;-61
2023/07/29 05:39:43;;;;;;;0.40;0.10;;;;;;;19.02;100.00;98517.56;7401664;19;20018;-61
2023/07/29 05:42:09;;;;;;;0.80;0.20;;;;;;;19.00;100.00;98512.47;7398419;19;20010;-61
2023/07/29 05:44:35;;;;;;;2.83;0.85;;;;;;;19.07;100.00;98519.44;7396367;19;20010;-62
2023/07/29 05:47:02;;;;;;;1.95;0.10;;;;;;;19.11;100.00;98514.91;7396342;19;20015;-62
2023/07/29 05:49:28;;;;;;;4.50;0.35;;;;;;;19.11;100.00;98523.38;7395541;19;20018;-62
2023/07/29 05:51:54;;;;;;;3.53;0.40;;;;;;;18.97;100.00;98515.69;7401278;19;20066;-62
2023/07/29 05:54:20;;;;;;;0.32;0.25;;;;;;;19.05;100.00;98516.44;7398313;19;20066;-61
2023/07/29 05:56:46;;;;;;;0.13;0.13;;;;;;;18.99;100.00;98525.09;7394794;19;20030;-61
2023/07/29 05:59:13;;;;;;;3.13;0.90;;;;;;;19.16;100.00;98516.81;7395597;19;20066;-62
2023/07/29 06:01:39;;;;;;;2.75;0.52;;;;;;;19.25;100.00;98519.03;7395894;19;20011;-62
2023/07/29 06:04:06;;;;;;;0.28;0.17;;;;;;;19.27;100.00;98524.88;7396917;19;20010;-62
2023/07/29 06:06:32;;;;;;;0.30;0.10;;;;;;;20.44;100.00;98518.38;7396239;19;20095;-62
2023/07/29 06:08:58;;;;;;;1.45;0.20;;;;;;;20.23;100.00;98520.75;7399670;19;20011;-62
2023/07/29 06:11:24;;;;;;;0.70;0.50;;;;;;;20.40;100.00;98520.84;7396117;19;20014;-62
2023/07/29 06:13:51;;;;;;;0.52;0.22;;;;;;;20.14;100.00;98529.84;7399247;19;20507;-62
2023/07/29 06:16:17;;;;;;;6.13;1.02;;;;;;;19.73;100.00;98533.25;7397705;19;20017;-62
2023/07/29 06:18:43;;;;;;;0.52;0.40;;;;;;;20.42;100.00;98523.13;7395874;19;20014;-62
2023/07/29 06:21:12;;;;;;;0.20;0.10;;;;;;;21.89;100.00;98528.53;7395796;19;20014;-62
2023/07/29 06:23:38;;;;;;;0.25;0.10;;;;;;;23.59;100.00;98525.50;7398704;19;20031;-62
2023/07/29 06:26:06;;;;;;;0.55;0.20;;;;;;;20.60;100.00;98525.44;7398432;19;20074;-62
2023/07/29 06:28:32;;;;;;;0.57;0.10;;;;;;;21.55;100.00;98530.63;7397698;19;20015;-62
2023/07/29 06:30:58;;;;;;;0.95;0.22;;;;;;;24.98;100.00;98518.47;7398798;19;20017;-62
2023/07/29 06:33:24;;;;;;;1.10;0.20;;;;;;;21.35;100.00;98520.47;7395616;19;20015;-62
2023/07/29 06:35:51;;;;;;;1.38;0.40;;;;;;;20.55;100.00;98515.09;7396275;19;20076;-62
2023/07/29 06:38:21;;;;;;;1.10;0.68;;;;;;;20.63;100.00;98520.69;7397312;19;20018;-62
2023/07/29 06:40:48;;;;;;;0.68;0.15;;;;;;;20.43;100.00;98519.69;7396774;19;20015;-61
2023/07/29 06:43:14;;;;;;;2.38;0.47;;;;;;;20.41;100.00;98516.69;7398883;19;20062;-62
2023/07/29 06:45:40;;;;;;;2.65;0.63;;;;;;;21.03;100.00;98513.59;7395916;19;20014;-59
2023/07/29 06:48:07;;;;;;;4.22;0.32;;;;;;;21.94;100.00;98518.28;7397836;19;20006;-62
2023/07/29 06:50:33;;;;;;;0.20;0.00;;;;;;;22.33;100.00;98519.25;7395947;19;20519;-62
2023/07/29 06:52:59;;;;;;;5.88;0.85;;;;;;;22.81;100.00;98525.16;7394744;19;20515;-62
2023/07/29 06:55:25;;;;;;;2.05;0.40;;;;;;;22.89;100.00;98534.34;7394717;19;20010;-62
2023/07/29 06:57:51;;;;;;;0.30;0.20;;;;;;;22.26;100.00;98526.53;7396651;19;20014;-62
2023/07/29 07:00:18;;;;;;;2.28;0.50;;;;;;;22.29;100.00;98525.38;7394881;19;20095;-62
2023/07/29 07:02:44;;;;;;;2.85;0.63;;;;;;;22.35;100.00;98528.69;7396930;19;20014;-62
2023/07/29 07:05:10;;;;;;;0.47;0.15;;;;;;;22.78;100.00;98517.84;7392603;19;20045;-61
2023/07/29 07:07:37;;;;;;;1.17;0.35;;;;;;;22.40;100.00;98529.75;7395176;19;20430;-62
2023/07/29 07:10:04;;;;;;;1.30;0.52;;;;;;;23.40;100.00;98525.50;7395725;19;20015;-62
2023/07/29 07:12:30;;;;;;;1.52;0.20;;;;;;;23.69;100.00;98523.41;7395818;19;20007;-62
2023/07/29 07:14:56;;;;;;;0.10;0.00;;;;;;;22.83;100.00;98531.00;7395307;19;20048;-62
2023/07/29 07:17:22;;;;;;;0.30;0.25;;;;;;;22.33;100.00;98525.69;7395342;19;20018;-61
2023/07/29 07:19:49;;;;;;;2.53;0.30;;;;;;;22.80;100.00;98523.69;7395934;19;20530;-61
2023/07/29 07:22:16;;;;;;;0.20;0.10;;;;;;;24.28;100.00;98519.19;7395460;19;20010;-61
2023/07/29 07:24:42;;;;;;;0.90;0.30;;;;;;;24.14;100.00;98521.00;7393557;19;20018;-62
2023/07/29 07:27:08;;;;;;;0.20;0.20;;;;;;;23.71;100.00;98520.72;7394818;19;20074;-62
2023/07/29 07:29:34;;;;;;;0.43;0.13;;;;;;;24.26;100.00;98516.94;7398785;19;20052;-62
2023/07/29 07:32:00;;;;;;;4.43;0.10;;;;;;;23.76;100.00;98516.06;7394250;19;20420;-62
2023/07/29 07:34:26;;;;;;;1.85;0.85;;;;;;;23.16;100.00;98509.44;7395202;19;20013;-62
2023/07/29 07:36:52;;;;;;;0.30;0.30;;;;;;;22.97;100.00;98523.59;7395355;19;20014;-62
2023/07/29 07:39:19;;;;;;;0.82;0.30;;;;;;;26.56;100.00;98516.13;7398887;19;20018;-62
2023/07/29 07:41:45;;;;;;;1.65;0.20;;;;;;;32.62;72.18;98524.22;7394523;19;20010;-62
2023/07/29 07:44:15;;;;;;;13.15;0.95;;;;;;;26.61;92.30;98528.53;7394775;19;20034;-62
2023/07/29 07:46:41;;;;;;;1.77;0.85;;;;;;;25.87;99.09;98527.31;7393624;19;21096;-62
2023/07/29 07:49:07;;;;;;;0.57;0.45;;;;;;;28.50;79.71;98540.53;7397865;19;20011;-62
2023/07/29 07:51:34;;;;;;;0.98;0.20;;;;;;;26.74;93.48;98536.53;7394188;19;20017;-62
2023/07/29 07:54:00;;;;;;;2.53;0.13;;;;;;;28.03;85.47;98538.56;7394487;19;20027;-62
2023/07/29 07:56:26;;;;;;;1.05;0.40;;;;;;;25.67;100.00;98548.78;7394421;19;20025;-62
2023/07/29 07:58:52;;;;;;;0.35;0.10;;;;;;;25.60;100.00;98544.06;7397309;19;20022;-61
2023/07/29 08:01:18;;;;;;;0.32;0.10;;;;;;;25.46;100.00;98541.75;7393388;19;20052;-61
2023/07/29 08:03:44;;;;;;;0.10;0.00;;;;;;;27.33;99.71;98538.00;7392922;19;20014;-61
2023/07/29 08:06:10;;;;;;;0.38;0.20;;;;;;;24.47;100.00;98542.63;7392234;19;20007;-61
2023/07/29 08:08:36;;;;;;;0.10;0.03;;;;;;;28.66;95.09;98531.38;7393894;19;20439;-61
2023/07/29 08:11:02;;;;;;;1.35;0.10;;;;;;;29.46;83.30;98540.66;7393033;19;20006;-61
2023/07/29 08:13:28;;;;;;;0.40;0.10;;;;;;;31.17;75.84;98549.75;7394837;19;20017;-61
2023/07/29 08:15:55;;;;;;;0.70;0.30;;;;;;;39.51;48.64;98541.63;7393757;19;20003;-61
2023/07/29 08:18:21;;;;;;;0.50;0.08;;;;;;;32.27;55.04;98546.56;7395036;19;20002;-61
2023/07/29 08:20:58;;;;;;;0.10;0.10;;;;;;;32.94;59.84;98535.50;7394163;19;20007;-62
2023/07/29 08:23:25;;;;;;;4.88;0.25;;;;;;;41.09;40.37;98521.00;7393054;19;20010;-61
2023/07/29 08:25:56;;;;;;;1.05;0.32;;;;;;;28.85;65.64;98533.84;7393570;19;20030;-62
2023/07/29 08:28:23;;;;;;;0.57;0.38;;;;;;;23.92;100.00;98535.09;7394177;19;20015;-62
2023/07/29 08:30:49;;;;;;;0.15;0.10;;;;;;;22.95;100.00;98537.63;7393132;19;20015;-62
2023/07/29 08:33:15;;;;;;;0.95;0.25;;;;;;;22.63;100.00;98536.59;7389360;19;20035;-62
2023/07/29 08:35:41;;;;;;;0.40;0.10;;;;;;;29.37;98.81;98518.72;7393336;19;20015;-62
2023/07/29 08:38:07;;;;;;;5.72;0.52;;;;;;;32.30;64.43;98520.03;7394664;19;20013;-62
2023/07/29 08:40:36;;;;;;;0.30;0.20;;;;;;;29.82;65.88;98522.47;7392818;19;20408;-62
2023/07/29 08:43:06;;;;;;;0.52;0.30;;;;;;;24.30;100.00;98522.91;7396189;19;20024;-62
2023/07/29 08:45:35;;;;;;;0.80;0.20;;;;;;;23.30;100.00;98521.88;7393429;19;20019;-62
2023/07/29 08:48:05;;;;;;;0.10;0.10;;;;;;;36.73;60.28;98510.81;7394827;19;20520;-62
2023/07/29 08:50:32;;;;;;;0.52;0.20;;;;;;;41.49;40.46;98518.25;7392314;19;20471;-62
2023/07/29 08:53:00;;;;;;;0.10;0.10;;;;;;;35.80;41.59;98520.16;7397846;19;20015;-62
2023/07/29 08:55:26;;;;;;;0.38;0.10;;;;;;;29.59;63.64;98522.69;7400555;19;20018;-62
2023/07/29 08:57:54;;;;;;;0.60;0.30;;;;;;;25.05;91.19;98528.94;7401190;19;20014;-62
2023/07/29 09:00:21;;;;;;;0.10;0.00;;;;;;;25.50;94.92;98527.78;7398294;19;20021;-62
2023/07/29 09:02:47;;;;;;;0.30;0.10;;;;;;;25.81;92.17;98521.97;7400715;19;20340;-62
2023/07/29 09:05:13;;;;;;;1.17;0.20;;;;;;;25.83;89.21;98524.19;7400893;19;20017;-62
2023/07/29 09:07:41;;;;;;;0.10;0.03;;;;;;;27.76;86.63;98519.13;7400369;19;20035;-62
2023/07/29 09:10:10;;;;;;;1.08;0.30;;;;;;;26.02;88.44;98524.03;7400268;19;20011;-62
2023/07/29 09:12:36;;;;;;;0.10;0.10;;;;;;;25.08;93.34;98524.84;7399179;19;20025;-62
2023/07/29 09:15:03;;;;;;;4.80;0.20;;;;;;;24.81;98.46;98515.88;7400464;19;20011;-62
2023/07/29 09:17:32;;;;;;;0.15;0.10;;;;;;;24.89;98.04;98530.66;7397994;19;20029;-62
2023/07/29 09:19:58;;;;;;;0.00;0.00;;;;;;;26.13;91.17;98517.63;7399643;19;20073;-62
2023/07/29 09:22:27;;;;;;;1.70;0.10;;;;;;;24.78;92.90;98519.91;7399122;19;20070;-62
2023/07/29 09:24:53;;;;;;;0.55;0.20;;;;;;;23.81;100.00;98515.78;7398800;19;20070;-62
2023/07/29 09:27:27;;;;;;;0.35;0.20;;;;;;;24.71;98.28;98515.16;7398248;19;20014;-62
2023/07/29 09:29:54;;;;;;;0.95;0.32;;;;;;;24.60;98.28;98515.78;7402394;19;20459;-62
2023/07/29 09:32:22;;;;;;;1.02;0.22;;;;;;;24.83;96.89;98510.31;7402301;19;20033;-62
2023/07/29 09:34:48;;;;;;;0.20;0.03;;;;;;;25.41;95.15;98511.44;7399252;19;20462;-63
2023/07/29 09:37:21;;;;;;;0.10;0.10;;;;;;;25.99;94.26;98517.44;7397603;19;20021;-62
2023/07/29 09:39:49;;;;;;;2.65;0.10;;;;;;;25.25;99.12;98518.91;7399392;19;20023;-62
2023/07/29 09:42:19;;;;;;;0.22;0.22;;;;;;;25.65;95.39;98518.03;7400846;19;20364;-62
2023/07/29 09:44:46;;;;;;;0.30;0.10;;;;;;;25.73;96.27;98540.66;7402954;19;20538;-62
2023/07/29 09:47:25;;;;;;;6.60;0.47;;;;;;;25.17;94.26;98551.81;7398896;19;20014;-62
2023/07/29 09:49:52;;;;;;;4.78;0.68;;;;;;;24.21;99.08;98577.00;7398142;19;20014;-59
2023/07/29 09:52:21;;;;;;;0.32;0.20;;;;;;;23.12;100.00;98572.38;7396820;19;20015;-58
2023/07/29 09:54:47;;;;;;;0.10;0.10;;;;;;;23.31;100.00;98563.13;7397595;19;20011;-58
2023/07/29 09:57:15;;;;;;;0.10;0.10;;;;;;;23.99;100.00;98544.81;7400701;19;20018;-58
2023/07/29 09:59:42;;;;;;;0.10;0.10;;;;;;;25.74;98.13;98559.25;7396446;19;20011;-58
2023/07/29 10:02:16;;;;;;;1.63;0.17;;;;;;;26.31;95.16;98553.06;7397204;19;20011;-58
2023/07/29 10:04:43;;;;;;;1.10;0.10;;;;;;;27.31;89.30;98563.59;7395152;19;20066;-57
2023/07/29 10:07:10;;;;;;;0.10;0.00;;;;;;;26.85;91.47;98565.13;7398582;19;20035;-58
2023/07/29 10:09:39;;;;;;;0.20;0.20;;;;;;;23.38;100.00;98562.28;7400085;19;20024;-58
2023/07/29 10:12:09;;;;;;;0.20;0.20;;;;;;;23.57;100.00;98562.31;7393337;19;20471;-58
2023/07/29 10:14:38;;;;;;;;;;;;;;;24.21;100.00;98565.63;7394105;19;20462;-57
2023/07/29 10:17:05;;;;;;;0.20;0.20;;;;;;;25.62;98.43;98564.88;7395720;19;20124;-58
2023/07/29 10:19:31;;;;;;;0.38;0.08;;;;;;;22.89;100.00;98568.41;7400092;19;20034;-57
2023/07/29 10:22:03;;;;;;;0.10;0.10;;;;;;;23.44;100.00;98559.91;7395856;19;20070;-58
2023/07/29 10:24:33;;;;;;;0.00;0.00;;;;;;;24.20;100.00;98564.88;7395042;19;20026;-58
2023/07/29 10:27:00;;;;;;;0.63;0.10;;;;;;;25.67;100.00;98568.75;7400153;19;20022;-57
2023/07/29 10:29:42;;;;;;;0.22;0.10;;;;;;;25.21;100.00;98569.94;7402345;19;20031;-57
2023/07/29 10:32:10;;;;;;;1.30;0.25;;;;;;;24.30;100.00;98576.97;7395630;19;20031;-58
2023/07/29 10:34:38;;;;;;;3.95;0.20;;;;;;;24.23;100.00;98574.31;7397641;19;20015;-58
2023/07/29 10:37:05;;;;;;;3.88;0.70;;;;;;;24.11;100.00;98568.47;7397945;19;20010;-58
2023/07/29 10:39:39;;;;;;;0.50;0.00;;;;;;;24.32;100.00;98577.13;7402118;19;20019;-59
2023/07/29 10:42:06;;;;;;;0.20;0.15;;;;;;;24.94;100.00;98583.72;7398638;19;20015;-58
2023/07/29 10:44:46;;;;;;;0.40;0.10;;;;;;;25.19;100.00;98569.78;7397823;19;20011;-58
2023/07/29 10:47:17;;;;;;;0.20;0.10;;;;;;;24.87;100.00;98573.25;7397548;19;20051;-58
2023/07/29 10:49:43;;;;;;;;;;;;;;;26.01;100.00;98571.06;7397854;19;20027;-59
2023/07/29 10:52:16;;;;;;;1.17;0.40;;;;;;;25.64;100.00;98572.84;7396016;19;19939;-59
2023/07/29 10:54:42;;;;;;;4.18;0.22;;;;;;;27.52;91.03;98567.09;7394447;19;20501;-59
2023/07/29 10:57:16;;;;;;;3.50;0.10;;;;;;;25.62;100.00;98570.59;7394862;19;20606;-59
2023/07/29 10:59:58;;;;;;;0.75;0.20;;;;;;;25.66;98.66;98576.59;7395591;19;20014;-59
2023/07/29 11:02:40;;;;;;;1.25;0.15;;;;;;;26.69;88.74;98572.63;7396239;19;20270;-59
2023/07/29 11:05:15;;;;;;;2.55;0.45;;;;;;;24.60;96.35;98578.41;7395156;19;20404;-59
2023/07/29 11:07:48;;;;;;;0.10;0.10;;;;;;;25.19;95.28;98575.50;7397398;19;20014;-57
2023/07/29 11:10:15;;;;;;;1.85;0.17;;;;;;;25.67;94.79;98571.59;7396328;19;20013;-59
2023/07/29 11:12:51;;;;;;;4.40;0.25;;;;;;;26.19;92.40;98570.16;7398189;19;20015;-60
2023/07/29 11:15:26;;;;;;;0.10;0.00;;;;;;;26.73;88.13;98575.78;7395172;19;20014;-58
2023/07/29 11:17:54;;;;;;;2.40;0.20;;;;;;;25.51;88.87;98580.56;7396042;19;20010;-60
2023/07/29 11:20:24;;;;;;;0.10;0.00;;;;;;;27.70;82.41;98582.44;7394654;19;20014;-61
2023/07/29 11:22:52;;;;;;;1.17;0.32;;;;;;;27.07;82.08;98579.28;7395915;19;20023;-58
2023/07/29 11:25:19;;;;;;;1.15;0.25;;;;;;;26.97;83.38;98577.28;7395361;19;20376;-59
2023/07/29 11:27:46;;;;;;;0.13;0.00;;;;;;;26.95;81.80;98580.03;7396580;19;20031;-60